Strona główna
METAR-TAF:

METAR-TAF

Lotnisko :

Albert, Francja

Szerokość geograficzna: 49-58-21N, Długość geograficzna: 002-41-29E, wysokość: 111 m

Aktualna obserwacja pogody

Raport powstał 19 minut temu, godzina 05:00 UTC
Wiatr 4 kt od południe
Temperatura 8°C
Wilgotność 87%
Ciśnienie 1025 hPa
Widzialność 10 km lub więcej
Zachmurzenie całkowite na wysokości 4300 ft

METAR: LFAQ 290500Z AUTO 19004KT 9999 OVC043 08/06 Q1025

czas: 07:19 (05:19 UTC)

Prognoza

Raport powstał 15 godziny i 19 minut temu, godzina 14:00 UTC
Prognoza ważna od 28 godzina 15 UTC do 28 godzina 24 UTC
Wiatr 12 kt od południowy zachód
Widzialność 10 km lub więcej
Rozproszone chmury na wysokości 4000 ft
Prawdopodobieństwo 40% :
Przejściowo
od 28 godzina 15 UTC do 28 godzina 21 UTC
Widzialność: 3000 m
Przerywane chmury na wysokości 3000 ft, Cumulonimbus.
przelotny opad deszczu
Stopniowe zmiany
od 28 godzina 18 UTC do 28 godzina 21 UTC
Wiatr 5 kt od południe

TAF: LFAQ 281400Z 2815/2824 23012KT 9999 SCT040 PROB40 TEMPO 2815/2821 3000 SHRA BKN030CB BECMG 2818/2821 17005KT

Obserwacja i prognoza pogody dla ponad 4000 lotnisk (raport METAR i TAF).

Dostępne stacje oznaczono żółtymi i czerwonymi punktami na mapie.

Najedź kursorem aby zobaczyć nazwę stacji.

Kliknij aby zobaczyć obserwacje i prognozy pogody.

Aby zmienić mapę: kliknij na zielony przycisk z czarnym krzyżykiem, aby powiększyć; na zielony przycisk z myślnikiem, aby pomniejszyć; na zielone strzałki, aby przejść do map sąsiednich.


METAR-TAF: